createdAt,value
2019-03-10T00:03:38.834Z,5.90
2019-03-10T00:08:42.158Z,5.70
2019-03-10T00:13:45.919Z,5.70
2019-03-10T00:18:49.872Z,5.50
2019-03-10T00:23:55.227Z,5.40
2019-03-10T00:28:58.594Z,5.20
2019-03-10T00:34:02.985Z,5.10
2019-03-10T00:39:42.481Z,5.00
2019-03-10T00:45:33.831Z,5.00
2019-03-10T00:51:28.063Z,5.00
2019-03-10T00:56:33.244Z,5.00
2019-03-10T01:01:37.446Z,5.00
2019-03-10T01:06:41.033Z,5.00
2019-03-10T01:11:45.314Z,5.00
2019-03-10T01:16:48.952Z,5.10
2019-03-10T01:21:53.513Z,5.30
2019-03-10T01:26:57.101Z,5.30
2019-03-10T01:32:43.103Z,5.20
2019-03-10T01:37:46.801Z,5.10
2019-03-10T01:42:50.279Z,4.80
2019-03-10T01:52:57.925Z,4.80
2019-03-10T01:58:01.550Z,4.60
2019-03-10T02:03:04.888Z,4.50
2019-03-10T02:08:08.928Z,4.20
2019-03-10T02:13:12.885Z,4.20
2019-03-10T02:18:17.254Z,4.30
2019-03-10T02:23:21.009Z,4.40
2019-03-10T02:28:24.730Z,4.10
2019-03-10T02:33:28.592Z,4.10
2019-03-10T02:38:31.920Z,4.20
2019-03-10T02:43:35.266Z,4.20
2019-03-10T02:48:39.783Z,6.10
2019-03-10T02:53:43.291Z,4.40
2019-03-10T02:58:46.990Z,4.40
2019-03-10T03:03:50.815Z,4.40
2019-03-10T03:08:54.586Z,4.50
2019-03-10T03:13:58.509Z,4.40
2019-03-10T03:19:02.332Z,4.50
2019-03-10T03:24:05.779Z,4.50
2019-03-10T03:29:09.155Z,4.50
2019-03-10T03:34:13.379Z,4.60
2019-03-10T03:39:48.381Z,4.50
2019-03-10T03:44:51.766Z,4.50
2019-03-10T03:49:55.123Z,4.40
2019-03-10T03:54:58.459Z,5.80
2019-03-10T04:00:03.127Z,4.50
2019-03-10T04:05:07.995Z,4.40
2019-03-10T04:10:11.317Z,4.50
2019-03-10T04:15:17.447Z,4.30
2019-03-10T04:20:33.549Z,4.50
2019-03-10T04:25:37.088Z,5.00
2019-03-10T04:30:42.256Z,4.30
2019-03-10T04:35:47.846Z,4.90
2019-03-10T04:40:51.639Z,4.30
2019-03-10T04:45:54.960Z,4.20
2019-03-10T04:50:58.341Z,4.20
2019-03-10T04:56:11.712Z,4.10
2019-03-10T05:01:15.766Z,4.20
2019-03-10T05:06:19.778Z,4.10
2019-03-10T05:11:23.093Z,4.10
2019-03-10T05:16:27.213Z,4.10
2019-03-10T05:21:30.436Z,4.10
2019-03-10T05:26:33.753Z,4.10
2019-03-10T05:31:37.105Z,4.10
2019-03-10T05:36:40.520Z,4.10
2019-03-10T05:41:44.669Z,4.80
2019-03-10T05:46:48.718Z,4.00
2019-03-10T05:51:52.706Z,4.50
2019-03-10T05:56:56.189Z,4.00
2019-03-10T06:02:01.012Z,4.00
2019-03-10T06:07:04.407Z,4.10
2019-03-10T06:12:08.003Z,4.10
2019-03-10T06:17:11.438Z,4.20
2019-03-10T06:22:14.927Z,4.30
2019-03-10T06:27:18.274Z,4.10
2019-03-10T06:32:22.300Z,4.10
2019-03-10T06:37:26.007Z,4.10
2019-03-10T06:42:30.270Z,4.20
2019-03-10T06:47:35.091Z,4.30
2019-03-10T06:52:38.431Z,4.40
2019-03-10T06:57:42.462Z,4.60
2019-03-10T07:02:46.766Z,4.60
2019-03-10T07:07:50.121Z,4.70
2019-03-10T07:12:54.234Z,4.90
2019-03-10T07:17:57.962Z,5.40
2019-03-10T07:23:03.444Z,5.30
2019-03-10T07:28:24.949Z,5.40
2019-03-10T07:33:46.836Z,5.50
2019-03-10T07:38:56.070Z,5.70
2019-03-10T07:44:07.754Z,6.00
2019-03-10T07:49:31.062Z,5.90
2019-03-10T07:54:56.723Z,6.10
2019-03-10T08:00:19.242Z,6.20
2019-03-10T08:05:36.033Z,8.40
2019-03-10T08:10:57.463Z,6.80
2019-03-10T08:16:18.874Z,6.80
2019-03-10T08:21:41.537Z,6.90
2019-03-10T08:27:13.177Z,6.80
2019-03-10T08:32:42.130Z,6.70
2019-03-10T08:38:20.151Z,7.00
2019-03-10T08:43:57.636Z,7.00
2019-03-10T08:49:11.978Z,7.00
2019-03-10T08:54:24.083Z,6.90
2019-03-10T08:59:45.582Z,6.70
2019-03-10T09:05:06.965Z,7.10
2019-03-10T09:10:31.618Z,7.10
2019-03-10T09:15:50.771Z,7.20
2019-03-10T09:21:03.365Z,7.30
2019-03-10T09:26:25.031Z,7.80
2019-03-10T09:31:46.332Z,7.80
2019-03-10T09:37:08.057Z,8.00
2019-03-10T09:42:26.551Z,7.90
2019-03-10T09:47:41.275Z,8.40
2019-03-10T09:53:22.162Z,8.20
2019-03-10T09:58:45.252Z,8.30
2019-03-10T10:04:11.246Z,8.50
2019-03-10T10:09:45.904Z,8.60
2019-03-10T10:15:15.093Z,8.70
2019-03-10T10:20:30.825Z,9.00
2019-03-10T10:25:47.753Z,8.70
2019-03-10T10:31:13.179Z,8.60
2019-03-10T10:36:38.499Z,8.50
2019-03-10T10:41:54.455Z,8.70
2019-03-10T10:47:26.748Z,9.10
2019-03-10T10:52:39.443Z,9.00
2019-03-10T10:57:58.235Z,8.90
2019-03-10T11:03:22.022Z,9.20
2019-03-10T11:08:50.892Z,9.20
2019-03-10T11:14:06.910Z,8.80
2019-03-10T11:19:18.315Z,9.60
2019-03-10T11:24:27.773Z,9.80
2019-03-10T11:29:37.943Z,9.60
2019-03-10T11:34:52.936Z,9.80
2019-03-10T11:40:05.859Z,9.70
2019-03-10T11:45:34.792Z,9.80
2019-03-10T11:50:58.803Z,9.70
2019-03-10T11:56:20.092Z,10.10
2019-03-10T12:01:41.468Z,10.30
2019-03-10T12:07:03.449Z,10.10
2019-03-10T12:12:07.021Z,9.90
2019-03-10T12:17:10.711Z,10.00
2019-03-10T12:22:14.417Z,10.60
2019-03-10T12:27:17.750Z,10.70
2019-03-10T12:32:21.485Z,10.80
2019-03-10T12:37:24.864Z,11.10
2019-03-10T12:42:28.909Z,11.00
2019-03-10T12:47:32.296Z,10.40
2019-03-10T12:52:35.708Z,10.40
2019-03-10T12:57:42.066Z,10.40
2019-03-10T13:07:50.319Z,9.60
2019-03-10T13:12:53.885Z,9.70
2019-03-10T13:17:57.450Z,9.40
2019-03-10T13:23:01.267Z,9.40
2019-03-10T13:28:04.689Z,9.40
2019-03-10T13:38:12.040Z,9.40
2019-03-10T13:43:15.998Z,10.50
2019-03-10T13:58:30.101Z,9.90
2019-03-10T14:08:36.625Z,11.00
2019-03-10T14:13:39.937Z,11.20
2019-03-10T14:23:49.091Z,10.20
2019-03-10T14:28:52.460Z,10.10
2019-03-10T14:33:57.166Z,9.80
2019-03-10T14:39:01.704Z,9.80
2019-03-10T14:44:06.726Z,9.70
2019-03-10T14:49:10.386Z,8.50
2019-03-10T14:54:19.896Z,8.50
2019-03-10T15:04:26.667Z,7.90
2019-03-10T15:09:31.544Z,7.60
2019-03-10T15:14:35.275Z,7.60
2019-03-10T15:24:43.358Z,7.70
2019-03-10T15:29:47.076Z,7.60
2019-03-10T15:34:52.377Z,7.90
2019-03-10T15:39:56.374Z,7.90
2019-03-10T15:45:00.308Z,7.60
2019-03-10T15:50:08.153Z,7.40
2019-03-10T15:55:11.453Z,7.30
2019-03-10T16:00:16.759Z,7.40
2019-03-10T16:05:22.892Z,7.40
2019-03-10T16:10:26.872Z,7.30
2019-03-10T16:15:31.081Z,7.10
2019-03-10T16:20:34.654Z,7.10
2019-03-10T16:25:37.964Z,7.00
2019-03-10T16:30:41.272Z,7.00
2019-03-10T16:35:44.639Z,7.00
2019-03-10T16:40:48.497Z,7.00
2019-03-10T16:45:54.138Z,7.00
2019-03-10T16:50:57.485Z,7.00
2019-03-10T16:56:03.067Z,7.10
2019-03-10T17:01:07.394Z,7.00
2019-03-10T17:06:11.863Z,6.90
2019-03-10T17:11:15.205Z,6.90
2019-03-10T17:16:20.078Z,7.00
2019-03-10T17:21:23.409Z,6.90
2019-03-10T17:26:26.728Z,6.90
2019-03-10T17:31:30.434Z,6.80
2019-03-10T17:36:33.767Z,6.80
2019-03-10T17:41:37.103Z,6.80
2019-03-10T17:46:41.661Z,6.80
2019-03-10T17:51:45.963Z,6.90
2019-03-10T17:56:49.320Z,6.90
2019-03-10T18:01:52.647Z,6.90
2019-03-10T18:06:55.984Z,6.90
2019-03-10T18:12:00.383Z,6.90
2019-03-10T18:17:05.007Z,6.80
2019-03-10T18:22:08.446Z,6.90
2019-03-10T18:27:13.128Z,6.80
2019-03-10T18:32:17.183Z,6.90
2019-03-10T18:37:21.239Z,6.90
2019-03-10T18:42:25.240Z,6.90
2019-03-10T18:47:28.798Z,6.90
2019-03-10T18:52:33.833Z,6.90
2019-03-10T18:57:37.609Z,6.90
2019-03-10T19:02:41.023Z,6.90
2019-03-10T19:07:46.968Z,6.90
2019-03-10T19:12:50.420Z,6.90
2019-03-10T19:17:56.000Z,6.90
2019-03-10T19:22:59.914Z,6.90
2019-03-10T19:28:05.614Z,6.80
2019-03-10T19:33:09.347Z,6.70
2019-03-10T19:38:12.649Z,6.70
2019-03-10T19:43:16.761Z,6.70
2019-03-10T19:48:20.241Z,6.70
2019-03-10T19:53:23.549Z,4.10
2019-03-10T19:58:26.865Z,6.80
2019-03-10T20:03:30.731Z,6.80
2019-03-10T20:08:34.099Z,6.80
2019-03-10T20:13:38.255Z,6.70
2019-03-10T20:18:41.919Z,6.60
2019-03-10T20:23:45.268Z,6.60
2019-03-10T20:33:52.627Z,6.50
2019-03-10T20:38:56.495Z,6.40
2019-03-10T20:44:00.166Z,6.30
2019-03-10T20:49:03.564Z,6.30
2019-03-10T20:54:08.021Z,6.30
2019-03-10T21:04:15.133Z,6.30
2019-03-10T21:09:19.115Z,6.30
2019-03-10T21:19:26.219Z,6.30
2019-03-10T21:29:33.461Z,6.30
2019-03-10T21:34:36.878Z,6.40
2019-03-10T21:39:40.209Z,6.40
2019-03-10T21:44:51.010Z,6.60
2019-03-10T21:49:54.468Z,6.70
2019-03-10T22:05:04.654Z,6.80
2019-03-10T22:10:09.802Z,6.80
2019-03-10T22:15:15.541Z,6.90
2019-03-10T22:25:22.873Z,7.00
2019-03-10T22:30:26.232Z,7.10
2019-03-10T22:35:29.559Z,7.20
2019-03-10T22:40:33.139Z,7.30
2019-03-10T22:45:37.145Z,7.30
2019-03-10T22:50:40.566Z,7.30
2019-03-10T22:55:44.357Z,7.30
2019-03-10T23:00:54.405Z,7.40
2019-03-10T23:05:57.639Z,7.50
2019-03-10T23:11:01.205Z,7.30
2019-03-10T23:16:05.411Z,7.30
2019-03-10T23:21:18.412Z,7.20
2019-03-10T23:26:26.187Z,7.10
2019-03-10T23:31:29.762Z,7.00
2019-03-10T23:36:34.906Z,6.90
2019-03-10T23:41:38.556Z,6.80
2019-03-10T23:46:42.412Z,6.80
2019-03-10T23:51:45.756Z,6.70
2019-03-10T23:56:49.095Z,6.50
